sensor_id;sensor_type;location;lat;lon;timestamp;pressure;altitude;pressure_sealevel;temperature;humidity
43281;BME280;62175;49.416;8.690;2023-05-22T00:02:12;100060.96;;;20.83;54.48
43281;BME280;62175;49.416;8.690;2023-05-22T00:04:40;100058.43;;;20.77;55.77
43281;BME280;62175;49.416;8.690;2023-05-22T00:07:09;100056.74;;;20.85;53.50
43281;BME280;62175;49.416;8.690;2023-05-22T00:09:36;100054.78;;;20.85;54.63
43281;BME280;62175;49.416;8.690;2023-05-22T00:12:05;100056.36;;;20.79;53.44
43281;BME280;62175;49.416;8.690;2023-05-22T00:14:34;100056.01;;;20.82;55.24
43281;BME280;62175;49.416;8.690;2023-05-22T00:17:03;100056.99;;;20.52;53.44
43281;BME280;62175;49.416;8.690;2023-05-22T00:19:31;100054.41;;;20.73;54.77
43281;BME280;62175;49.416;8.690;2023-05-22T00:21:59;100056.33;;;20.89;53.45
43281;BME280;62175;49.416;8.690;2023-05-22T00:24:27;100051.77;;;20.71;53.29
43281;BME280;62175;49.416;8.690;2023-05-22T00:26:54;100055.25;;;20.72;53.31
43281;BME280;62175;49.416;8.690;2023-05-22T00:29:22;100054.29;;;20.68;53.21
43281;BME280;62175;49.416;8.690;2023-05-22T00:31:49;100051.44;;;20.71;54.58
43281;BME280;62175;49.416;8.690;2023-05-22T02:02:15;100073.26;;;20.58;57.15
43281;BME280;62175;49.416;8.690;2023-05-22T02:11:49;100072.57;;;20.36;56.63
43281;BME280;62175;49.416;8.690;2023-05-22T02:42:34;100083.21;;;19.76;57.11
43281;BME280;62175;49.416;8.690;2023-05-22T22:02:58;100258.85;;;21.44;60.40
43281;BME280;62175;49.416;8.690;2023-05-22T22:05:26;100256.42;;;21.80;59.81
43281;BME280;62175;49.416;8.690;2023-05-22T22:07:55;100256.70;;;22.17;59.65
43281;BME280;62175;49.416;8.690;2023-05-22T22:10:23;100257.86;;;21.95;59.95
43281;BME280;62175;49.416;8.690;2023-05-22T22:12:52;100261.88;;;21.85;59.70
43281;BME280;62175;49.416;8.690;2023-05-22T22:15:20;100265.72;;;22.10;59.57
43281;BME280;62175;49.416;8.690;2023-05-22T22:17:49;100268.83;;;21.79;59.29
43281;BME280;62175;49.416;8.690;2023-05-22T22:20:17;100272.03;;;22.09;59.15
43281;BME280;62175;49.416;8.690;2023-05-22T22:22:46;100277.55;;;22.06;59.42
43281;BME280;62175;49.416;8.690;2023-05-22T22:25:14;100283.30;;;22.01;59.57
43281;BME280;62175;49.416;8.690;2023-05-22T22:27:42;100283.92;;;21.96;59.62
43281;BME280;62175;49.416;8.690;2023-05-22T22:30:10;100282.04;;;21.91;59.40
43281;BME280;62175;49.416;8.690;2023-05-22T22:32:37;100281.49;;;22.04;60.01
43281;BME280;62175;49.416;8.690;2023-05-22T22:35:06;100281.58;;;22.00;59.77
43281;BME280;62175;49.416;8.690;2023-05-22T22:37:38;100283.64;;;22.00;59.87
43281;BME280;62175;49.416;8.690;2023-05-22T22:40:06;100284.17;;;22.17;60.26
43281;BME280;62175;49.416;8.690;2023-05-22T22:42:34;100283.26;;;21.89;59.88
43281;BME280;62175;49.416;8.690;2023-05-22T22:45:01;100283.13;;;21.84;60.10
43281;BME280;62175;49.416;8.690;2023-05-22T22:47:28;100286.40;;;21.92;60.13
43281;BME280;62175;49.416;8.690;2023-05-22T22:49:55;100285.14;;;22.03;60.05
43281;BME280;62175;49.416;8.690;2023-05-22T22:52:23;100288.50;;;21.92;60.22
43281;BME280;62175;49.416;8.690;2023-05-22T22:54:50;100289.34;;;21.92;60.39
43281;BME280;62175;49.416;8.690;2023-05-22T22:57:18;100290.17;;;21.96;60.22
43281;BME280;62175;49.416;8.690;2023-05-22T22:59:45;100294.02;;;21.85;60.29
43281;BME280;62175;49.416;8.690;2023-05-22T23:02:13;100297.58;;;21.87;60.28
43281;BME280;62175;49.416;8.690;2023-05-22T23:04:41;100299.61;;;21.88;60.22
43281;BME280;62175;49.416;8.690;2023-05-22T23:07:08;100302.03;;;21.92;60.26
43281;BME280;62175;49.416;8.690;2023-05-22T23:09:36;100303.34;;;21.97;60.09
43281;BME280;62175;49.416;8.690;2023-05-22T23:12:03;100301.62;;;21.85;60.36
43281;BME280;62175;49.416;8.690;2023-05-22T23:14:30;100300.10;;;21.63;60.64
43281;BME280;62175;49.416;8.690;2023-05-22T23:16:57;100302.80;;;21.71;60.83
43281;BME280;62175;49.416;8.690;2023-05-22T23:19:24;100305.52;;;21.90;60.67
43281;BME280;62175;49.416;8.690;2023-05-22T23:21:52;100305.30;;;21.89;60.72
43281;BME280;62175;49.416;8.690;2023-05-22T23:24:19;100311.65;;;21.60;60.74
43281;BME280;62175;49.416;8.690;2023-05-22T23:26:47;100310.26;;;21.61;60.74
43281;BME280;62175;49.416;8.690;2023-05-22T23:29:14;100308.55;;;21.47;61.05
43281;BME280;62175;49.416;8.690;2023-05-22T23:31:41;100310.28;;;21.45;60.95
43281;BME280;62175;49.416;8.690;2023-05-22T23:34:09;100310.90;;;21.55;60.74
43281;BME280;62175;49.416;8.690;2023-05-22T23:36:36;100307.78;;;21.61;60.27
43281;BME280;62175;49.416;8.690;2023-05-22T23:39:04;100312.72;;;21.56;60.54
43281;BME280;62175;49.416;8.690;2023-05-22T23:41:31;100316.60;;;21.78;60.57
43281;BME280;62175;49.416;8.690;2023-05-22T23:43:59;100315.45;;;21.63;61.12
43281;BME280;62175;49.416;8.690;2023-05-22T23:46:26;100316.79;;;21.65;60.82
43281;BME280;62175;49.416;8.690;2023-05-22T23:48:53;100317.07;;;21.65;60.17
43281;BME280;62175;49.416;8.690;2023-05-22T23:51:20;100319.58;;;21.70;60.11
43281;BME280;62175;49.416;8.690;2023-05-22T23:53:48;100320.66;;;22.06;60.28
43281;BME280;62175;49.416;8.690;2023-05-22T23:56:16;100317.50;;;21.82;60.24
43281;BME280;62175;49.416;8.690;2023-05-22T23:58:43;100315.05;;;21.95;60.37
